sensor_id;sensor_type;location;lat;lon;timestamp;temperature;humidity
73254;DHT22;61474;50.834;4.552;2022-10-16T00:00:14;23.60;68.40
73254;DHT22;61474;50.834;4.552;2022-10-16T00:02:39;23.60;68.50
73254;DHT22;61474;50.834;4.552;2022-10-16T00:05:05;23.70;68.50
73254;DHT22;61474;50.834;4.552;2022-10-16T00:07:30;23.70;68.40
73254;DHT22;61474;50.834;4.552;2022-10-16T00:09:55;23.70;68.30
73254;DHT22;61474;50.834;4.552;2022-10-16T00:12:21;23.70;68.60
73254;DHT22;61474;50.834;4.552;2022-10-16T00:14:46;23.70;68.40
73254;DHT22;61474;50.834;4.552;2022-10-16T00:17:12;23.70;68.50
73254;DHT22;61474;50.834;4.552;2022-10-16T00:19:37;23.70;68.40
73254;DHT22;61474;50.834;4.552;2022-10-16T00:22:03;23.70;69.40
73254;DHT22;61474;50.834;4.552;2022-10-16T00:24:28;23.70;68.40
73254;DHT22;61474;50.834;4.552;2022-10-16T00:26:54;23.70;68.50
73254;DHT22;61474;50.834;4.552;2022-10-16T00:29:19;23.70;68.50
73254;DHT22;61474;50.834;4.552;2022-10-16T00:31:44;23.70;68.50
73254;DHT22;61474;50.834;4.552;2022-10-16T00:34:10;23.70;68.50
73254;DHT22;61474;50.834;4.552;2022-10-16T00:36:35;23.70;68.40
73254;DHT22;61474;50.834;4.552;2022-10-16T00:39:01;23.70;68.40
73254;DHT22;61474;50.834;4.552;2022-10-16T00:41:27;23.70;68.50
73254;DHT22;61474;50.834;4.552;2022-10-16T00:43:54;23.70;68.50
73254;DHT22;61474;50.834;4.552;2022-10-16T00:46:24;23.60;68.70
73254;DHT22;61474;50.834;4.552;2022-10-16T00:51:15;23.50;68.60
73254;DHT22;61474;50.834;4.552;2022-10-16T00:53:43;23.60;68.70
73254;DHT22;61474;50.834;4.552;2022-10-16T00:56:09;23.50;68.70
73254;DHT22;61474;50.834;4.552;2022-10-16T00:58:34;23.60;68.60
73254;DHT22;61474;50.834;4.552;2022-10-16T01:01:00;23.70;68.40
73254;DHT22;61474;50.834;4.552;2022-10-16T01:03:29;23.70;68.40
73254;DHT22;61474;50.834;4.552;2022-10-16T01:05:59;23.60;68.30
73254;DHT22;61474;50.834;4.552;2022-10-16T01:08:28;23.50;68.60
73254;DHT22;61474;50.834;4.552;2022-10-16T01:10:58;23.60;68.50
73254;DHT22;61474;50.834;4.552;2022-10-16T01:13:27;23.60;68.30
73254;DHT22;61474;50.834;4.552;2022-10-16T01:15:56;23.60;68.40
73254;DHT22;61474;50.834;4.552;2022-10-16T01:18:34;23.60;68.60
73254;DHT22;61474;50.834;4.552;2022-10-16T01:21:06;23.50;68.70
73254;DHT22;61474;50.834;4.552;2022-10-16T01:23:51;23.60;68.40
73254;DHT22;61474;50.834;4.552;2022-10-16T01:29:28;23.60;68.50
73254;DHT22;61474;50.834;4.552;2022-10-16T01:31:53;23.60;68.50
73254;DHT22;61474;50.834;4.552;2022-10-16T01:34:23;23.60;68.40
73254;DHT22;61474;50.834;4.552;2022-10-16T01:36:51;23.60;68.40
73254;DHT22;61474;50.834;4.552;2022-10-16T01:39:18;23.60;68.30
73254;DHT22;61474;50.834;4.552;2022-10-16T01:41:49;23.60;68.40
73254;DHT22;61474;50.834;4.552;2022-10-16T01:44:18;23.70;68.30
73254;DHT22;61474;50.834;4.552;2022-10-16T01:46:46;23.60;68.30
73254;DHT22;61474;50.834;4.552;2022-10-16T01:49:13;23.60;68.40
73254;DHT22;61474;50.834;4.552;2022-10-16T01:51:39;23.50;68.40
73254;DHT22;61474;50.834;4.552;2022-10-16T01:54:07;23.50;68.40
73254;DHT22;61474;50.834;4.552;2022-10-16T01:56:33;23.50;68.50
73254;DHT22;61474;50.834;4.552;2022-10-16T01:59:00;23.60;68.30
73254;DHT22;61474;50.834;4.552;2022-10-16T02:01:27;23.60;68.20
73254;DHT22;61474;50.834;4.552;2022-10-16T02:03:55;23.60;68.40
73254;DHT22;61474;50.834;4.552;2022-10-16T02:06:22;23.60;68.40
73254;DHT22;61474;50.834;4.552;2022-10-16T02:08:48;23.60;68.40
73254;DHT22;61474;50.834;4.552;2022-10-16T02:11:14;23.50;68.40
73254;DHT22;61474;50.834;4.552;2022-10-16T02:13:46;23.50;68.40
73254;DHT22;61474;50.834;4.552;2022-10-16T02:16:13;23.50;68.50
73254;DHT22;61474;50.834;4.552;2022-10-16T02:18:39;23.50;68.60
73254;DHT22;61474;50.834;4.552;2022-10-16T02:21:08;23.50;68.70
73254;DHT22;61474;50.834;4.552;2022-10-16T02:23:39;23.50;68.40
73254;DHT22;61474;50.834;4.552;2022-10-16T02:26:07;23.50;68.70
73254;DHT22;61474;50.834;4.552;2022-10-16T02:28:37;23.60;68.40
73254;DHT22;61474;50.834;4.552;2022-10-16T02:31:06;23.60;68.50
73254;DHT22;61474;50.834;4.552;2022-10-16T02:33:33;23.60;68.40
73254;DHT22;61474;50.834;4.552;2022-10-16T02:35:59;23.60;68.40
73254;DHT22;61474;50.834;4.552;2022-10-16T02:38:25;23.60;68.60
73254;DHT22;61474;50.834;4.552;2022-10-16T02:40:51;23.50;68.50
73254;DHT22;61474;50.834;4.552;2022-10-16T02:43:17;23.50;68.40
73254;DHT22;61474;50.834;4.552;2022-10-16T02:45:42;23.50;68.50
73254;DHT22;61474;50.834;4.552;2022-10-16T02:48:08;23.50;68.40
73254;DHT22;61474;50.834;4.552;2022-10-16T02:50:33;23.50;68.50
73254;DHT22;61474;50.834;4.552;2022-10-16T02:52:59;23.50;68.40
73254;DHT22;61474;50.834;4.552;2022-10-16T02:55:24;23.50;68.40
73254;DHT22;61474;50.834;4.552;2022-10-16T02:57:50;23.50;68.50
73254;DHT22;61474;50.834;4.552;2022-10-16T03:00:16;23.50;68.60
73254;DHT22;61474;50.834;4.552;2022-10-16T03:02:42;23.50;68.50
73254;DHT22;61474;50.834;4.552;2022-10-16T03:05:08;23.50;68.50
73254;DHT22;61474;50.834;4.552;2022-10-16T03:07:33;23.50;68.40
73254;DHT22;61474;50.834;4.552;2022-10-16T03:09:59;23.50;68.40
73254;DHT22;61474;50.834;4.552;2022-10-16T03:12:27;23.50;68.60
73254;DHT22;61474;50.834;4.552;2022-10-16T03:14:53;23.50;68.50
73254;DHT22;61474;50.834;4.552;2022-10-16T03:17:18;23.50;68.50
73254;DHT22;61474;50.834;4.552;2022-10-16T03:19:44;23.60;68.60
73254;DHT22;61474;50.834;4.552;2022-10-16T03:22:09;23.50;68.50
73254;DHT22;61474;50.834;4.552;2022-10-16T03:24:35;23.50;68.50
73254;DHT22;61474;50.834;4.552;2022-10-16T03:27:00;23.50;68.70
73254;DHT22;61474;50.834;4.552;2022-10-16T03:29:26;23.50;68.70
73254;DHT22;61474;50.834;4.552;2022-10-16T03:31:52;23.50;68.70
73254;DHT22;61474;50.834;4.552;2022-10-16T03:34:18;23.50;68.60
73254;DHT22;61474;50.834;4.552;2022-10-16T03:36:43;23.50;68.70
73254;DHT22;61474;50.834;4.552;2022-10-16T03:39:09;23.50;69.50
73254;DHT22;61474;50.834;4.552;2022-10-16T03:41:34;23.60;68.70
73254;DHT22;61474;50.834;4.552;2022-10-16T03:44:00;23.50;68.50
73254;DHT22;61474;50.834;4.552;2022-10-16T03:46:25;23.50;68.40
73254;DHT22;61474;50.834;4.552;2022-10-16T03:48:50;23.50;68.50
73254;DHT22;61474;50.834;4.552;2022-10-16T03:51:16;23.50;68.60
73254;DHT22;61474;50.834;4.552;2022-10-16T03:53:41;23.50;68.40
73254;DHT22;61474;50.834;4.552;2022-10-16T03:56:07;23.50;68.40
73254;DHT22;61474;50.834;4.552;2022-10-16T03:58:32;23.50;68.50
73254;DHT22;61474;50.834;4.552;2022-10-16T04:00:58;23.50;68.30
73254;DHT22;61474;50.834;4.552;2022-10-16T04:03:23;23.50;68.30
73254;DHT22;61474;50.834;4.552;2022-10-16T04:05:49;23.50;68.40
73254;DHT22;61474;50.834;4.552;2022-10-16T04:08:15;23.50;68.30
73254;DHT22;61474;50.834;4.552;2022-10-16T04:10:42;23.50;68.40
73254;DHT22;61474;50.834;4.552;2022-10-16T04:13:07;23.50;68.40
73254;DHT22;61474;50.834;4.552;2022-10-16T04:15:33;23.50;68.40
73254;DHT22;61474;50.834;4.552;2022-10-16T04:17:58;23.50;68.40
73254;DHT22;61474;50.834;4.552;2022-10-16T04:20:24;23.50;68.40
73254;DHT22;61474;50.834;4.552;2022-10-16T04:22:49;23.50;68.10
73254;DHT22;61474;50.834;4.552;2022-10-16T04:25:15;23.50;68.10
73254;DHT22;61474;50.834;4.552;2022-10-16T04:27:40;23.50;68.40
73254;DHT22;61474;50.834;4.552;2022-10-16T04:30:06;23.50;68.40
73254;DHT22;61474;50.834;4.552;2022-10-16T04:32:32;23.50;68.40
73254;DHT22;61474;50.834;4.552;2022-10-16T04:34:57;23.50;68.30
73254;DHT22;61474;50.834;4.552;2022-10-16T04:37:23;23.50;68.10
73254;DHT22;61474;50.834;4.552;2022-10-16T04:39:49;23.50;68.10
73254;DHT22;61474;50.834;4.552;2022-10-16T04:42:14;23.50;68.20
73254;DHT22;61474;50.834;4.552;2022-10-16T04:44:40;23.40;68.30
73254;DHT22;61474;50.834;4.552;2022-10-16T04:47:05;23.50;68.20
73254;DHT22;61474;50.834;4.552;2022-10-16T04:49:31;23.50;68.20
73254;DHT22;61474;50.834;4.552;2022-10-16T04:51:56;23.50;68.30
73254;DHT22;61474;50.834;4.552;2022-10-16T04:54:22;23.50;68.30
73254;DHT22;61474;50.834;4.552;2022-10-16T04:56:47;23.40;68.40
73254;DHT22;61474;50.834;4.552;2022-10-16T04:59:15;23.40;68.10
73254;DHT22;61474;50.834;4.552;2022-10-16T05:01:41;23.50;68.20
73254;DHT22;61474;50.834;4.552;2022-10-16T05:04:06;23.50;68.10
73254;DHT22;61474;50.834;4.552;2022-10-16T05:06:32;23.50;68.10
73254;DHT22;61474;50.834;4.552;2022-10-16T05:08:58;23.50;68.10
73254;DHT22;61474;50.834;4.552;2022-10-16T05:11:23;23.50;68.20
73254;DHT22;61474;50.834;4.552;2022-10-16T05:13:49;23.50;68.30
73254;DHT22;61474;50.834;4.552;2022-10-16T05:16:14;23.50;68.40
73254;DHT22;61474;50.834;4.552;2022-10-16T05:18:40;23.40;68.20
73254;DHT22;61474;50.834;4.552;2022-10-16T05:21:05;23.40;68.30
73254;DHT22;61474;50.834;4.552;2022-10-16T05:23:31;23.50;68.30
73254;DHT22;61474;50.834;4.552;2022-10-16T05:25:57;23.40;68.30
73254;DHT22;61474;50.834;4.552;2022-10-16T05:28:26;23.50;68.40
73254;DHT22;61474;50.834;4.552;2022-10-16T05:30:52;23.40;68.40
73254;DHT22;61474;50.834;4.552;2022-10-16T05:33:19;23.40;68.40
73254;DHT22;61474;50.834;4.552;2022-10-16T05:35:45;23.40;68.60
73254;DHT22;61474;50.834;4.552;2022-10-16T05:38:10;23.40;68.80
73254;DHT22;61474;50.834;4.552;2022-10-16T05:40:36;23.40;68.40
73254;DHT22;61474;50.834;4.552;2022-10-16T05:43:01;23.40;68.30
73254;DHT22;61474;50.834;4.552;2022-10-16T05:45:27;23.40;68.30
73254;DHT22;61474;50.834;4.552;2022-10-16T05:47:52;23.40;68.40
73254;DHT22;61474;50.834;4.552;2022-10-16T05:50:18;23.50;68.50
73254;DHT22;61474;50.834;4.552;2022-10-16T05:52:43;23.50;68.50
73254;DHT22;61474;50.834;4.552;2022-10-16T05:55:08;23.40;68.40
73254;DHT22;61474;50.834;4.552;2022-10-16T05:57:34;23.50;68.20
73254;DHT22;61474;50.834;4.552;2022-10-16T05:59:59;23.50;68.40
73254;DHT22;61474;50.834;4.552;2022-10-16T06:02:25;23.40;68.30
73254;DHT22;61474;50.834;4.552;2022-10-16T06:04:53;23.40;68.20
73254;DHT22;61474;50.834;4.552;2022-10-16T06:07:19;23.40;68.40
73254;DHT22;61474;50.834;4.552;2022-10-16T06:09:47;23.40;68.30
73254;DHT22;61474;50.834;4.552;2022-10-16T06:12:12;23.50;68.40
73254;DHT22;61474;50.834;4.552;2022-10-16T06:14:38;23.50;68.40
73254;DHT22;61474;50.834;4.552;2022-10-16T06:17:03;23.40;68.50
73254;DHT22;61474;50.834;4.552;2022-10-16T06:19:29;23.40;68.20
73254;DHT22;61474;50.834;4.552;2022-10-16T06:21:54;23.50;68.50
73254;DHT22;61474;50.834;4.552;2022-10-16T06:24:20;23.50;68.50
73254;DHT22;61474;50.834;4.552;2022-10-16T06:26:45;23.40;68.40
73254;DHT22;61474;50.834;4.552;2022-10-16T06:29:11;23.50;68.30
73254;DHT22;61474;50.834;4.552;2022-10-16T06:31:36;23.50;68.20
73254;DHT22;61474;50.834;4.552;2022-10-16T06:34:02;23.40;68.20
73254;DHT22;61474;50.834;4.552;2022-10-16T06:36:29;23.40;68.30
73254;DHT22;61474;50.834;4.552;2022-10-16T06:38:55;23.50;68.10
73254;DHT22;61474;50.834;4.552;2022-10-16T06:41:22;23.50;68.20
73254;DHT22;61474;50.834;4.552;2022-10-16T06:43:48;23.50;68.10
73254;DHT22;61474;50.834;4.552;2022-10-16T06:46:14;23.40;68.20
73254;DHT22;61474;50.834;4.552;2022-10-16T06:48:40;23.40;68.30
73254;DHT22;61474;50.834;4.552;2022-10-16T06:51:06;23.40;68.40
73254;DHT22;61474;50.834;4.552;2022-10-16T06:53:34;23.40;68.40
73254;DHT22;61474;50.834;4.552;2022-10-16T06:56:09;23.40;68.30
73254;DHT22;61474;50.834;4.552;2022-10-16T06:58:35;23.40;68.30
73254;DHT22;61474;50.834;4.552;2022-10-16T07:01:00;23.50;68.40
73254;DHT22;61474;50.834;4.552;2022-10-16T07:03:26;23.50;68.40
73254;DHT22;61474;50.834;4.552;2022-10-16T07:05:51;23.50;68.50
73254;DHT22;61474;50.834;4.552;2022-10-16T07:08:17;23.40;68.40
73254;DHT22;61474;50.834;4.552;2022-10-16T07:10:42;23.50;68.40
73254;DHT22;61474;50.834;4.552;2022-10-16T07:13:08;23.50;68.40
73254;DHT22;61474;50.834;4.552;2022-10-16T07:15:33;23.40;68.50
73254;DHT22;61474;50.834;4.552;2022-10-16T07:17:59;23.40;68.60
73254;DHT22;61474;50.834;4.552;2022-10-16T07:20:24;23.40;68.70
73254;DHT22;61474;50.834;4.552;2022-10-16T07:22:50;23.40;68.60
73254;DHT22;61474;50.834;4.552;2022-10-16T07:25:16;23.50;68.40
73254;DHT22;61474;50.834;4.552;2022-10-16T07:27:41;23.50;68.40
73254;DHT22;61474;50.834;4.552;2022-10-16T07:30:07;23.50;68.40
73254;DHT22;61474;50.834;4.552;2022-10-16T07:32:32;23.50;68.40
73254;DHT22;61474;50.834;4.552;2022-10-16T07:34:58;23.50;68.40
73254;DHT22;61474;50.834;4.552;2022-10-16T07:37:23;23.50;68.50
73254;DHT22;61474;50.834;4.552;2022-10-16T07:39:49;23.50;69.00
73254;DHT22;61474;50.834;4.552;2022-10-16T07:42:14;23.50;68.40
73254;DHT22;61474;50.834;4.552;2022-10-16T07:44:41;23.40;68.60
73254;DHT22;61474;50.834;4.552;2022-10-16T07:47:06;23.40;68.70
73254;DHT22;61474;50.834;4.552;2022-10-16T07:49:32;23.40;68.40
73254;DHT22;61474;50.834;4.552;2022-10-16T07:51:57;23.40;68.90
73254;DHT22;61474;50.834;4.552;2022-10-16T07:54:23;23.40;68.70
73254;DHT22;61474;50.834;4.552;2022-10-16T07:56:48;23.50;68.70
73254;DHT22;61474;50.834;4.552;2022-10-16T07:59:14;23.40;68.30
73254;DHT22;61474;50.834;4.552;2022-10-16T08:01:39;23.40;68.10
73254;DHT22;61474;50.834;4.552;2022-10-16T08:04:05;23.40;68.30
73254;DHT22;61474;50.834;4.552;2022-10-16T08:06:35;23.50;67.90
73254;DHT22;61474;50.834;4.552;2022-10-16T08:08:59;23.60;67.90
73254;DHT22;61474;50.834;4.552;2022-10-16T08:11:25;23.60;67.70
73254;DHT22;61474;50.834;4.552;2022-10-16T08:13:51;23.70;67.50
73254;DHT22;61474;50.834;4.552;2022-10-16T08:16:16;23.70;67.80
73254;DHT22;61474;50.834;4.552;2022-10-16T08:18:42;23.70;68.00
73254;DHT22;61474;50.834;4.552;2022-10-16T08:21:12;23.60;67.60
73254;DHT22;61474;50.834;4.552;2022-10-16T08:23:37;23.60;68.50
73254;DHT22;61474;50.834;4.552;2022-10-16T08:26:04;23.60;67.60
73254;DHT22;61474;50.834;4.552;2022-10-16T08:28:30;23.60;67.60
73254;DHT22;61474;50.834;4.552;2022-10-16T08:30:56;23.60;67.50
73254;DHT22;61474;50.834;4.552;2022-10-16T08:33:24;23.60;67.60
73254;DHT22;61474;50.834;4.552;2022-10-16T08:35:50;23.50;67.60
73254;DHT22;61474;50.834;4.552;2022-10-16T08:38:15;23.50;67.60
73254;DHT22;61474;50.834;4.552;2022-10-16T08:40:41;23.50;67.60
73254;DHT22;61474;50.834;4.552;2022-10-16T08:43:11;23.50;67.60
73254;DHT22;61474;50.834;4.552;2022-10-16T08:48:27;23.50;67.40
73254;DHT22;61474;50.834;4.552;2022-10-16T08:50:55;23.50;67.50
73254;DHT22;61474;50.834;4.552;2022-10-16T08:53:24;23.50;67.50
73254;DHT22;61474;50.834;4.552;2022-10-16T08:55:52;23.50;67.40
73254;DHT22;61474;50.834;4.552;2022-10-16T08:58:18;23.50;67.30
73254;DHT22;61474;50.834;4.552;2022-10-16T09:00:45;23.50;67.40
73254;DHT22;61474;50.834;4.552;2022-10-16T09:11:09;23.50;67.20
73254;DHT22;61474;50.834;4.552;2022-10-16T09:18:57;23.60;66.80
73254;DHT22;61474;50.834;4.552;2022-10-16T09:21:25;23.60;66.90
73254;DHT22;61474;50.834;4.552;2022-10-16T09:23:52;23.60;66.80
73254;DHT22;61474;50.834;4.552;2022-10-16T09:26:19;23.60;67.00
73254;DHT22;61474;50.834;4.552;2022-10-16T09:28:47;23.60;67.30
73254;DHT22;61474;50.834;4.552;2022-10-16T09:31:16;23.60;66.90
73254;DHT22;61474;50.834;4.552;2022-10-16T09:33:42;23.60;67.00
73254;DHT22;61474;50.834;4.552;2022-10-16T09:36:08;23.70;67.00
73254;DHT22;61474;50.834;4.552;2022-10-16T09:38:36;23.70;66.80
73254;DHT22;61474;50.834;4.552;2022-10-16T09:48:53;23.70;66.80
73254;DHT22;61474;50.834;4.552;2022-10-16T09:51:21;23.70;67.60
73254;DHT22;61474;50.834;4.552;2022-10-16T09:53:47;23.70;66.90
73254;DHT22;61474;50.834;4.552;2022-10-16T09:56:34;23.80;66.70
73254;DHT22;61474;50.834;4.552;2022-10-16T09:59:15;23.80;66.50
73254;DHT22;61474;50.834;4.552;2022-10-16T10:01:43;23.80;66.30
73254;DHT22;61474;50.834;4.552;2022-10-16T10:04:09;23.80;66.60
73254;DHT22;61474;50.834;4.552;2022-10-16T10:06:45;23.80;66.70
73254;DHT22;61474;50.834;4.552;2022-10-16T10:11:56;23.70;66.60
73254;DHT22;61474;50.834;4.552;2022-10-16T10:16:48;23.80;66.60
73254;DHT22;61474;50.834;4.552;2022-10-16T10:19:15;23.80;67.10
73254;DHT22;61474;50.834;4.552;2022-10-16T10:21:40;23.90;67.10
73254;DHT22;61474;50.834;4.552;2022-10-16T10:24:09;24.00;67.00
73254;DHT22;61474;50.834;4.552;2022-10-16T10:26:36;24.00;67.80
73254;DHT22;61474;50.834;4.552;2022-10-16T10:29:24;24.00;67.70
73254;DHT22;61474;50.834;4.552;2022-10-16T10:31:56;24.10;68.30
73254;DHT22;61474;50.834;4.552;2022-10-16T10:39:57;24.10;69.50
73254;DHT22;61474;50.834;4.552;2022-10-16T10:47:42;24.20;69.40
73254;DHT22;61474;50.834;4.552;2022-10-16T10:50:14;24.10;69.50
73254;DHT22;61474;50.834;4.552;2022-10-16T10:52:52;24.20;69.30
73254;DHT22;61474;50.834;4.552;2022-10-16T11:00:26;24.10;69.00
73254;DHT22;61474;50.834;4.552;2022-10-16T11:03:02;24.20;69.20
73254;DHT22;61474;50.834;4.552;2022-10-16T11:10:26;24.10;69.40
73254;DHT22;61474;50.834;4.552;2022-10-16T11:12:54;24.00;69.40
73254;DHT22;61474;50.834;4.552;2022-10-16T11:15:21;24.00;69.80
73254;DHT22;61474;50.834;4.552;2022-10-16T11:17:57;23.90;70.60
73254;DHT22;61474;50.834;4.552;2022-10-16T11:20:30;23.90;70.30
73254;DHT22;61474;50.834;4.552;2022-10-16T11:23:01;23.90;70.10
73254;DHT22;61474;50.834;4.552;2022-10-16T11:25:31;23.90;70.00
73254;DHT22;61474;50.834;4.552;2022-10-16T11:27:58;23.90;69.90
73254;DHT22;61474;50.834;4.552;2022-10-16T11:30:28;23.90;69.90
73254;DHT22;61474;50.834;4.552;2022-10-16T11:38:32;23.80;69.60
73254;DHT22;61474;50.834;4.552;2022-10-16T11:40:59;23.80;69.70
73254;DHT22;61474;50.834;4.552;2022-10-16T11:43:34;23.80;69.70
73254;DHT22;61474;50.834;4.552;2022-10-16T11:46:12;23.80;69.50
73254;DHT22;61474;50.834;4.552;2022-10-16T11:48:43;23.80;69.60
73254;DHT22;61474;50.834;4.552;2022-10-16T11:54:08;23.80;69.50
73254;DHT22;61474;50.834;4.552;2022-10-16T11:56:40;23.80;69.40
73254;DHT22;61474;50.834;4.552;2022-10-16T11:59:08;23.80;69.40
73254;DHT22;61474;50.834;4.552;2022-10-16T12:01:38;23.80;69.40
73254;DHT22;61474;50.834;4.552;2022-10-16T12:04:49;23.80;69.40
73254;DHT22;61474;50.834;4.552;2022-10-16T12:06:59;23.80;69.50
73254;DHT22;61474;50.834;4.552;2022-10-16T12:09:30;23.80;69.40
73254;DHT22;61474;50.834;4.552;2022-10-16T12:11:56;23.80;69.40
73254;DHT22;61474;50.834;4.552;2022-10-16T12:14:33;23.80;69.30
73254;DHT22;61474;50.834;4.552;2022-10-16T12:17:04;23.80;69.10
73254;DHT22;61474;50.834;4.552;2022-10-16T12:19:56;23.80;69.40
73254;DHT22;61474;50.834;4.552;2022-10-16T12:22:22;23.80;69.50
73254;DHT22;61474;50.834;4.552;2022-10-16T12:24:50;23.80;69.40
73254;DHT22;61474;50.834;4.552;2022-10-16T12:27:21;23.80;69.20
73254;DHT22;61474;50.834;4.552;2022-10-16T12:29:48;23.80;69.10
73254;DHT22;61474;50.834;4.552;2022-10-16T12:32:23;23.80;69.10
73254;DHT22;61474;50.834;4.552;2022-10-16T12:34:50;23.80;69.60
73254;DHT22;61474;50.834;4.552;2022-10-16T12:37:20;23.90;70.10
73254;DHT22;61474;50.834;4.552;2022-10-16T12:39:48;24.00;70.60
73254;DHT22;61474;50.834;4.552;2022-10-16T12:42:30;24.00;70.50
73254;DHT22;61474;50.834;4.552;2022-10-16T12:44:56;24.00;70.50
73254;DHT22;61474;50.834;4.552;2022-10-16T12:49:56;24.00;70.30
73254;DHT22;61474;50.834;4.552;2022-10-16T12:54:50;24.00;70.40
73254;DHT22;61474;50.834;4.552;2022-10-16T12:57:37;24.10;70.30
73254;DHT22;61474;50.834;4.552;2022-10-16T13:00:18;24.10;70.10
73254;DHT22;61474;50.834;4.552;2022-10-16T13:13:28;23.90;70.20
73254;DHT22;61474;50.834;4.552;2022-10-16T13:20:56;24.00;70.10
73254;DHT22;61474;50.834;4.552;2022-10-16T13:26:21;23.90;70.30
73254;DHT22;61474;50.834;4.552;2022-10-16T13:28:48;23.90;70.20
73254;DHT22;61474;50.834;4.552;2022-10-16T13:31:16;23.80;70.50
73254;DHT22;61474;50.834;4.552;2022-10-16T13:33:43;23.80;70.30
73254;DHT22;61474;50.834;4.552;2022-10-16T13:36:29;23.80;70.20
73254;DHT22;61474;50.834;4.552;2022-10-16T13:39:10;23.80;70.30
73254;DHT22;61474;50.834;4.552;2022-10-16T13:41:36;23.80;70.30
73254;DHT22;61474;50.834;4.552;2022-10-16T13:44:01;23.80;70.20
73254;DHT22;61474;50.834;4.552;2022-10-16T13:46:27;23.80;70.30
73254;DHT22;61474;50.834;4.552;2022-10-16T13:48:59;23.80;70.20
73254;DHT22;61474;50.834;4.552;2022-10-16T13:51:25;23.80;70.50
73254;DHT22;61474;50.834;4.552;2022-10-16T13:53:50;23.80;70.20
73254;DHT22;61474;50.834;4.552;2022-10-16T13:56:16;23.80;70.20
73254;DHT22;61474;50.834;4.552;2022-10-16T13:58:42;23.80;70.20
73254;DHT22;61474;50.834;4.552;2022-10-16T14:01:23;23.80;70.10
73254;DHT22;61474;50.834;4.552;2022-10-16T14:03:49;23.80;70.10
73254;DHT22;61474;50.834;4.552;2022-10-16T14:06:16;23.80;71.00
73254;DHT22;61474;50.834;4.552;2022-10-16T14:08:43;23.80;70.00
73254;DHT22;61474;50.834;4.552;2022-10-16T14:11:10;23.80;70.00
73254;DHT22;61474;50.834;4.552;2022-10-16T14:13:45;23.80;70.10
73254;DHT22;61474;50.834;4.552;2022-10-16T14:16:11;23.80;70.00
73254;DHT22;61474;50.834;4.552;2022-10-16T14:18:41;23.80;70.10
73254;DHT22;61474;50.834;4.552;2022-10-16T14:21:06;23.80;70.80
73254;DHT22;61474;50.834;4.552;2022-10-16T14:23:36;23.80;69.90
73254;DHT22;61474;50.834;4.552;2022-10-16T14:28:34;23.80;69.90
73254;DHT22;61474;50.834;4.552;2022-10-16T14:31:00;23.70;69.60
73254;DHT22;61474;50.834;4.552;2022-10-16T14:35:59;23.80;69.70
73254;DHT22;61474;50.834;4.552;2022-10-16T14:38:25;23.80;69.70
73254;DHT22;61474;50.834;4.552;2022-10-16T14:40:51;23.80;69.80
73254;DHT22;61474;50.834;4.552;2022-10-16T14:43:24;23.80;69.80
73254;DHT22;61474;50.834;4.552;2022-10-16T14:45:54;23.80;69.70
73254;DHT22;61474;50.834;4.552;2022-10-16T14:48:20;23.70;69.60
73254;DHT22;61474;50.834;4.552;2022-10-16T14:50:46;23.80;69.70
73254;DHT22;61474;50.834;4.552;2022-10-16T14:53:12;23.80;69.70
73254;DHT22;61474;50.834;4.552;2022-10-16T14:55:38;23.70;69.60
73254;DHT22;61474;50.834;4.552;2022-10-16T14:58:04;23.80;69.70
73254;DHT22;61474;50.834;4.552;2022-10-16T15:00:29;23.70;69.30
73254;DHT22;61474;50.834;4.552;2022-10-16T15:02:55;23.70;69.60
73254;DHT22;61474;50.834;4.552;2022-10-16T15:05:21;23.80;69.70
73254;DHT22;61474;50.834;4.552;2022-10-16T15:07:48;23.80;69.20
73254;DHT22;61474;50.834;4.552;2022-10-16T15:10:14;23.80;69.20
73254;DHT22;61474;50.834;4.552;2022-10-16T15:12:40;23.80;69.20
73254;DHT22;61474;50.834;4.552;2022-10-16T15:15:19;23.80;69.40
73254;DHT22;61474;50.834;4.552;2022-10-16T15:17:45;23.80;69.40
73254;DHT22;61474;50.834;4.552;2022-10-16T15:20:10;23.80;69.40
73254;DHT22;61474;50.834;4.552;2022-10-16T15:22:36;23.70;69.20
73254;DHT22;61474;50.834;4.552;2022-10-16T15:25:01;23.70;69.40
73254;DHT22;61474;50.834;4.552;2022-10-16T15:27:27;23.70;69.40
73254;DHT22;61474;50.834;4.552;2022-10-16T15:29:53;23.70;69.20
73254;DHT22;61474;50.834;4.552;2022-10-16T15:32:18;23.70;69.20
73254;DHT22;61474;50.834;4.552;2022-10-16T15:34:44;23.70;69.40
73254;DHT22;61474;50.834;4.552;2022-10-16T15:37:09;23.70;69.40
73254;DHT22;61474;50.834;4.552;2022-10-16T15:39:37;23.70;69.10
73254;DHT22;61474;50.834;4.552;2022-10-16T15:42:02;23.70;69.20
73254;DHT22;61474;50.834;4.552;2022-10-16T15:44:28;23.80;69.30
73254;DHT22;61474;50.834;4.552;2022-10-16T15:46:55;23.80;68.90
73254;DHT22;61474;50.834;4.552;2022-10-16T15:49:21;23.80;69.00
73254;DHT22;61474;50.834;4.552;2022-10-16T15:51:47;23.70;69.00
73254;DHT22;61474;50.834;4.552;2022-10-16T15:54:12;23.70;69.10
73254;DHT22;61474;50.834;4.552;2022-10-16T15:56:38;23.70;69.10
73254;DHT22;61474;50.834;4.552;2022-10-16T15:59:03;23.70;69.10
73254;DHT22;61474;50.834;4.552;2022-10-16T16:01:32;23.70;69.90
73254;DHT22;61474;50.834;4.552;2022-10-16T16:03:57;23.70;68.90
73254;DHT22;61474;50.834;4.552;2022-10-16T16:06:23;23.80;68.90
73254;DHT22;61474;50.834;4.552;2022-10-16T16:08:49;23.70;69.10
73254;DHT22;61474;50.834;4.552;2022-10-16T16:11:15;23.70;69.10
73254;DHT22;61474;50.834;4.552;2022-10-16T16:13:41;23.70;68.90
73254;DHT22;61474;50.834;4.552;2022-10-16T16:16:07;23.80;69.10
73254;DHT22;61474;50.834;4.552;2022-10-16T16:18:33;23.80;68.80
73254;DHT22;61474;50.834;4.552;2022-10-16T16:20:59;23.80;68.70
73254;DHT22;61474;50.834;4.552;2022-10-16T16:23:24;23.70;68.60
73254;DHT22;61474;50.834;4.552;2022-10-16T16:28:35;23.80;68.50
73254;DHT22;61474;50.834;4.552;2022-10-16T16:31:00;23.70;68.70
73254;DHT22;61474;50.834;4.552;2022-10-16T16:33:26;23.70;68.90
73254;DHT22;61474;50.834;4.552;2022-10-16T16:35:55;23.80;68.60
73254;DHT22;61474;50.834;4.552;2022-10-16T16:38:21;23.70;68.80
73254;DHT22;61474;50.834;4.552;2022-10-16T16:40:46;23.70;68.80
73254;DHT22;61474;50.834;4.552;2022-10-16T16:43:12;23.70;68.80
73254;DHT22;61474;50.834;4.552;2022-10-16T16:45:37;23.70;68.90
73254;DHT22;61474;50.834;4.552;2022-10-16T16:48:02;23.70;68.80
73254;DHT22;61474;50.834;4.552;2022-10-16T16:50:28;23.70;68.80
73254;DHT22;61474;50.834;4.552;2022-10-16T16:52:53;23.70;68.80
73254;DHT22;61474;50.834;4.552;2022-10-16T16:55:19;23.70;68.80
73254;DHT22;61474;50.834;4.552;2022-10-16T16:57:47;23.70;68.80
73254;DHT22;61474;50.834;4.552;2022-10-16T17:00:13;23.70;68.60
73254;DHT22;61474;50.834;4.552;2022-10-16T17:02:38;23.70;68.70
73254;DHT22;61474;50.834;4.552;2022-10-16T17:05:08;23.70;68.60